createdAt,value
2022-12-08T00:02:39.879Z,0.88
2022-12-08T00:05:52.810Z,0.70
2022-12-08T00:09:07.749Z,0.95
2022-12-08T00:12:22.739Z,0.88
2022-12-08T00:15:31.333Z,0.99
2022-12-08T00:18:40.065Z,0.04
2022-12-08T00:21:50.057Z,0.87
2022-12-08T00:25:02.041Z,-0.06
2022-12-08T00:28:16.915Z,0.83
2022-12-08T00:31:37.004Z,1.00
2022-12-08T00:34:51.811Z,1.06
2022-12-08T00:38:01.217Z,1.13
2022-12-08T00:41:13.842Z,1.12
2022-12-08T00:44:23.492Z,1.11
2022-12-08T00:47:45.590Z,1.09
2022-12-08T00:51:13.461Z,1.03
2022-12-08T00:54:27.785Z,0.66
2022-12-08T00:58:01.935Z,1.18
2022-12-08T01:01:19.045Z,1.11
2022-12-08T01:04:33.790Z,0.74
2022-12-08T01:07:35.825Z,0.87
2022-12-08T01:11:15.841Z,0.79
2022-12-08T01:14:20.040Z,0.68
2022-12-08T01:17:34.979Z,0.71
2022-12-08T01:20:43.674Z,0.49
2022-12-08T01:23:58.771Z,0.47
2022-12-08T01:27:06.850Z,0.60
2022-12-08T01:30:17.511Z,0.53
2022-12-08T01:33:25.875Z,0.52
2022-12-08T01:36:41.805Z,0.48
2022-12-08T01:39:52.774Z,0.50
2022-12-08T01:43:01.406Z,0.43
2022-12-08T01:46:11.820Z,0.23
2022-12-08T01:49:37.788Z,-0.65
2022-12-08T01:52:56.786Z,0.18
2022-12-08T01:56:07.020Z,-0.07
2022-12-08T01:59:21.886Z,-0.70
2022-12-08T02:02:32.918Z,-0.05
2022-12-08T02:05:41.807Z,-0.01
2022-12-08T02:13:06.032Z,-0.09
2022-12-08T02:16:41.890Z,-0.12
2022-12-08T02:27:49.891Z,-0.01
2022-12-08T02:31:21.361Z,-0.02
2022-12-08T02:34:44.913Z,0.12
2022-12-08T02:37:57.316Z,0.05
2022-12-08T02:41:28.828Z,0.20
2022-12-08T02:44:43.358Z,-0.55
2022-12-08T02:52:19.867Z,0.46
2022-12-08T02:55:32.865Z,0.46
2022-12-08T02:59:18.866Z,0.53
2022-12-08T03:02:53.900Z,0.57
2022-12-08T03:06:19.846Z,0.70
2022-12-08T03:09:43.790Z,-0.34
2022-12-08T03:13:00.050Z,0.08
2022-12-08T03:16:19.987Z,0.12
2022-12-08T03:19:34.819Z,0.39
2022-12-08T03:22:45.803Z,0.16
2022-12-08T03:26:02.907Z,0.08
2022-12-08T03:29:20.457Z,0.98
2022-12-08T03:32:36.899Z,1.05
2022-12-08T03:35:46.846Z,1.00
2022-12-08T03:38:58.958Z,-0.16
2022-12-08T03:42:13.880Z,0.72
2022-12-08T03:45:15.845Z,-0.36
2022-12-08T03:48:39.273Z,0.26
2022-12-08T03:51:47.782Z,0.76
2022-12-08T03:54:56.641Z,0.81
2022-12-08T04:01:56.103Z,0.83
2022-12-08T04:05:50.042Z,0.90
2022-12-08T04:09:11.093Z,0.57
2022-12-08T04:12:21.890Z,0.97
2022-12-08T04:15:30.514Z,1.04
2022-12-08T04:25:40.798Z,1.14
2022-12-08T04:29:00.860Z,1.25
2022-12-08T04:32:15.871Z,1.27
2022-12-08T04:35:24.425Z,1.31
2022-12-08T04:42:30.896Z,1.36
2022-12-08T04:45:44.047Z,1.43
2022-12-08T04:48:58.817Z,1.47
2022-12-08T04:52:07.415Z,1.46
2022-12-08T04:55:17.706Z,1.17
2022-12-08T05:02:19.548Z,1.35
2022-12-08T05:05:33.807Z,1.37
2022-12-08T05:09:00.166Z,1.41
2022-12-08T05:12:17.852Z,1.33
2022-12-08T05:15:25.830Z,1.39
2022-12-08T05:19:14.195Z,1.36
2022-12-08T05:22:22.860Z,0.72
2022-12-08T05:25:39.850Z,1.29
2022-12-08T05:32:58.850Z,0.26
2022-12-08T05:36:00.654Z,0.77
2022-12-08T05:43:29.811Z,1.38
2022-12-08T05:46:46.851Z,1.40
2022-12-08T05:50:29.829Z,1.32
2022-12-08T05:53:38.456Z,1.40
2022-12-08T05:56:49.034Z,1.36
2022-12-08T06:00:40.879Z,1.05
2022-12-08T06:12:40.286Z,0.72
2022-12-08T06:15:48.856Z,1.49
2022-12-08T06:19:25.908Z,1.61
2022-12-08T06:22:34.740Z,1.68
2022-12-08T06:25:42.906Z,1.73
2022-12-08T06:33:15.874Z,1.68
2022-12-08T07:42:18.187Z,2.71
2022-12-08T07:45:31.429Z,2.73
2022-12-08T08:03:27.832Z,2.98
2022-12-08T08:50:05.136Z,3.89
2022-12-08T08:53:41.584Z,3.35
2022-12-08T09:01:04.906Z,4.16
2022-12-08T09:04:13.234Z,4.20
2022-12-08T09:12:27.006Z,2.86
2022-12-08T10:18:30.907Z,4.76
2022-12-08T10:21:42.251Z,4.79
2022-12-08T10:25:06.945Z,4.89
2022-12-08T11:24:52.568Z,4.73
2022-12-08T11:40:03.466Z,4.53
2022-12-08T11:43:41.435Z,4.52
2022-12-08T11:47:28.959Z,4.51
2022-12-08T11:55:37.201Z,4.41
2022-12-08T11:59:18.889Z,4.45
2022-12-08T12:02:43.899Z,4.51
2022-12-08T12:06:30.457Z,4.55
2022-12-08T12:14:04.929Z,4.43
2022-12-08T12:21:37.916Z,4.10
2022-12-08T12:25:19.000Z,4.61
2022-12-08T12:35:54.938Z,4.46
2022-12-08T13:06:42.355Z,4.42
2022-12-08T13:14:11.378Z,4.39
2022-12-08T13:21:45.954Z,4.22
2022-12-08T13:25:36.671Z,4.03
2022-12-08T13:41:43.926Z,4.42
2022-12-08T13:45:25.555Z,4.51
2022-12-08T13:57:05.458Z,4.38
2022-12-08T14:00:23.932Z,4.37
2022-12-08T14:12:05.935Z,3.71
2022-12-08T14:33:24.351Z,4.11
2022-12-08T14:36:33.763Z,4.17
2022-12-08T15:06:12.362Z,3.88
2022-12-08T15:23:41.713Z,3.81
2022-12-08T15:26:57.348Z,2.93
2022-12-08T15:30:10.648Z,3.79
2022-12-08T15:40:52.359Z,3.84
2022-12-08T15:44:10.606Z,3.72
2022-12-08T15:56:28.680Z,3.78
2022-12-08T16:00:50.529Z,3.72
2022-12-08T16:27:50.607Z,3.82
2022-12-08T16:44:29.850Z,3.65
2022-12-08T16:56:38.547Z,3.67
2022-12-08T17:16:43.708Z,3.84
2022-12-08T17:20:18.749Z,3.89
2022-12-08T17:24:26.523Z,3.87
2022-12-08T17:32:34.767Z,3.75
2022-12-08T17:48:47.450Z,3.78
2022-12-08T18:12:02.406Z,3.67
2022-12-08T18:19:53.732Z,3.72
2022-12-08T18:34:42.743Z,3.77
2022-12-08T18:42:47.254Z,3.70
2022-12-08T19:22:39.332Z,3.69
2022-12-08T19:25:58.309Z,3.65
2022-12-08T19:29:32.871Z,3.53
2022-12-08T19:32:51.730Z,2.88
2022-12-08T19:36:01.976Z,2.81
2022-12-08T19:39:19.431Z,3.58
2022-12-08T19:42:53.309Z,3.43
2022-12-08T19:45:55.469Z,3.19
2022-12-08T19:52:39.537Z,3.33
2022-12-08T19:55:54.319Z,3.48
2022-12-08T19:59:33.378Z,3.47
2022-12-08T20:02:52.490Z,2.68
2022-12-08T20:06:03.612Z,3.39
2022-12-08T20:13:24.374Z,3.44
2022-12-08T20:16:40.381Z,3.27
2022-12-08T20:19:43.675Z,3.34
2022-12-08T20:31:00.921Z,3.16
2022-12-08T20:34:19.583Z,3.10
2022-12-08T20:45:59.467Z,3.19
2022-12-08T20:49:23.401Z,3.17
2022-12-08T20:52:32.250Z,3.35
2022-12-08T20:55:48.555Z,3.35
2022-12-08T20:59:21.635Z,2.36
2022-12-08T21:02:43.224Z,2.64
2022-12-08T21:05:54.251Z,3.47
2022-12-08T21:09:53.637Z,3.47
2022-12-08T21:13:05.762Z,2.71
2022-12-08T21:16:18.391Z,3.46
2022-12-08T21:19:51.390Z,3.49
2022-12-08T21:22:53.332Z,3.42
2022-12-08T21:26:16.554Z,3.33
2022-12-08T21:29:34.606Z,3.28
2022-12-08T22:31:25.626Z,3.29
2022-12-08T22:46:33.482Z,3.23
2022-12-08T22:49:50.385Z,2.36
2022-12-08T22:53:10.378Z,3.04
2022-12-08T22:56:38.852Z,3.23
2022-12-08T23:04:18.331Z,3.23
2022-12-08T23:11:55.483Z,2.35
2022-12-08T23:15:11.634Z,3.19
2022-12-08T23:22:16.393Z,3.15
2022-12-08T23:25:25.125Z,2.76
2022-12-08T23:33:03.072Z,3.07
2022-12-08T23:36:50.769Z,3.01
2022-12-08T23:44:06.595Z,3.04
